Hinmansville, New York
Current Conditions -  °F | °C
As of 9:54 AM on Saturday 25 Oct 2014 (Local Time) from KFZY Reporting Station
Overcast Overcast  
Wind Chill: 52°   Ceiling: 6000
Heat Index: 52°   Visibility: 8mi
Dew Point: 46°   Wind: 8mph
Humidity: 80%   Direction: 200°SSW
Pressure: 29.79"   Gusts: NA
Location:  43.2769°N, 76.306°W
Report Text: KFZY 251354Z AUTO 20007KT 8SM SCT040 OVC060 11/08 A2979 RMK AO2 SLP088 T01110078
Loading
Personal Weather Stations






























Interactive Weather Map
Tropical Storm Tracking
New forecast layout! Learn more

10-Day Weather Forecast

Advertisements
Track Severe Weather on mobile